createdAt,value
2022-12-17T00:00:03.648Z,46.00
2022-12-17T00:03:15.807Z,46.40
2022-12-17T00:06:22.980Z,39.97
2022-12-17T00:09:22.843Z,50.85
2022-12-17T00:12:28.584Z,45.33
2022-12-17T00:15:37.135Z,47.85
2022-12-17T00:18:44.622Z,49.38
2022-12-17T00:21:51.645Z,49.35
2022-12-17T00:24:51.205Z,49.28
2022-12-17T00:27:57.690Z,54.53
2022-12-17T00:30:57.551Z,46.63
2022-12-17T00:34:02.644Z,46.70
2022-12-17T00:37:03.558Z,45.05
2022-12-17T00:40:10.648Z,45.40
2022-12-17T00:43:24.660Z,45.03
2022-12-17T00:46:24.406Z,42.97
2022-12-17T00:49:30.605Z,43.65
2022-12-17T00:52:31.888Z,42.97
2022-12-17T00:55:37.595Z,45.78
2022-12-17T00:58:37.359Z,42.13
2022-12-17T01:01:43.745Z,44.42
2022-12-17T01:04:42.843Z,42.30
2022-12-17T01:07:55.619Z,43.80
2022-12-17T01:11:03.618Z,38.58
2022-12-17T01:14:03.187Z,40.22
2022-12-17T01:17:07.678Z,32.05
2022-12-17T01:20:07.106Z,35.30
2022-12-17T01:23:13.664Z,35.67
2022-12-17T01:26:12.880Z,33.20
2022-12-17T01:29:18.707Z,32.80
2022-12-17T01:32:18.229Z,34.08
2022-12-17T01:35:22.893Z,37.30
2022-12-17T01:38:37.587Z,34.78
2022-12-17T01:41:37.166Z,38.40
2022-12-17T01:45:14.618Z,41.00
2022-12-17T01:48:28.006Z,34.38
2022-12-17T01:51:34.700Z,29.23
2022-12-17T01:54:36.179Z,35.42
2022-12-17T01:57:41.667Z,29.92
2022-12-17T02:00:48.724Z,34.67
2022-12-17T02:04:00.620Z,34.40
2022-12-17T02:07:15.667Z,31.15
2022-12-17T02:10:24.160Z,33.33
2022-12-17T02:13:38.922Z,35.25
2022-12-17T02:16:42.358Z,33.67
2022-12-17T02:20:15.640Z,30.90
2022-12-17T02:23:36.044Z,34.15
2022-12-17T02:26:48.320Z,30.73
2022-12-17T02:29:57.605Z,28.35
2022-12-17T02:33:02.749Z,31.88
2022-12-17T02:36:14.597Z,33.97
2022-12-17T02:39:14.299Z,29.67
2022-12-17T02:42:24.646Z,41.35
2022-12-17T02:45:31.744Z,40.80
2022-12-17T02:48:33.691Z,32.70
2022-12-17T02:51:41.678Z,32.03
2022-12-17T02:54:41.531Z,39.95
2022-12-17T02:57:53.648Z,41.08
2022-12-17T03:00:53.314Z,43.40
2022-12-17T03:03:58.630Z,38.30
2022-12-17T03:06:58.657Z,38.58
2022-12-17T03:10:04.700Z,33.25
2022-12-17T03:13:15.629Z,37.92
2022-12-17T03:16:14.945Z,37.53
2022-12-17T03:19:21.609Z,29.40
2022-12-17T03:22:20.737Z,37.97
2022-12-17T03:25:26.652Z,31.33
2022-12-17T03:28:30.008Z,22.98
2022-12-17T03:31:35.756Z,26.63
2022-12-17T03:34:53.722Z,26.58
2022-12-17T03:37:53.581Z,26.67
2022-12-17T03:40:59.651Z,28.17
2022-12-17T03:44:00.084Z,27.77
2022-12-17T03:47:05.768Z,23.45
2022-12-17T03:50:05.231Z,21.83
2022-12-17T03:53:10.657Z,24.88
2022-12-17T03:56:10.240Z,26.05
2022-12-17T03:59:28.659Z,22.55
2022-12-17T04:02:41.841Z,21.55
2022-12-17T04:05:41.176Z,22.33
2022-12-17T04:08:46.716Z,25.80
2022-12-17T04:11:46.050Z,20.55
2022-12-17T04:14:52.670Z,24.33
2022-12-17T04:17:51.870Z,26.67
2022-12-17T04:20:57.642Z,22.60
2022-12-17T04:24:09.700Z,19.83
2022-12-17T04:27:09.295Z,23.13
2022-12-17T04:30:16.642Z,20.35
2022-12-17T04:33:16.329Z,22.38
2022-12-17T04:36:21.651Z,24.83
2022-12-17T04:39:20.966Z,24.75
2022-12-17T04:42:25.783Z,19.42
2022-12-17T04:45:34.705Z,25.45
2022-12-17T04:48:34.252Z,24.73
2022-12-17T04:51:39.784Z,24.98
2022-12-17T04:54:39.319Z,20.70
2022-12-17T04:57:44.696Z,21.35
2022-12-17T05:00:45.272Z,29.45
2022-12-17T05:03:50.676Z,17.95
2022-12-17T05:06:50.535Z,19.42
2022-12-17T05:09:58.642Z,22.77
2022-12-17T05:13:03.641Z,22.17
2022-12-17T05:16:04.371Z,21.13
2022-12-17T05:19:08.658Z,21.05
2022-12-17T05:22:08.151Z,18.42
2022-12-17T05:25:12.635Z,19.02
2022-12-17T05:28:12.200Z,21.90
2022-12-17T05:31:23.940Z,24.73
2022-12-17T05:34:23.261Z,19.02
2022-12-17T05:37:27.642Z,23.90
2022-12-17T05:40:40.667Z,24.73
2022-12-17T05:43:40.325Z,28.88
2022-12-17T05:46:46.777Z,27.05
2022-12-17T05:49:45.818Z,22.75
2022-12-17T05:52:51.748Z,24.38
2022-12-17T05:55:51.238Z,19.95
2022-12-17T05:58:56.631Z,17.38
2022-12-17T06:02:10.760Z,16.98
2022-12-17T06:05:10.421Z,22.80
2022-12-17T06:08:14.678Z,21.17
2022-12-17T06:11:17.234Z,19.60
2022-12-17T06:14:21.689Z,25.27
2022-12-17T06:17:22.428Z,20.98
2022-12-17T06:20:27.714Z,21.85
2022-12-17T06:23:29.469Z,20.63
2022-12-17T06:26:34.671Z,21.80
2022-12-17T06:29:40.697Z,27.40
2022-12-17T06:32:41.634Z,24.27
2022-12-17T06:35:47.665Z,27.27
2022-12-17T06:38:47.406Z,21.65
2022-12-17T06:41:52.675Z,24.35
2022-12-17T06:44:51.461Z,20.67
2022-12-17T06:47:57.724Z,24.75
2022-12-17T06:51:03.659Z,24.77
2022-12-17T06:54:09.740Z,22.60
2022-12-17T06:57:08.683Z,25.13
2022-12-17T07:00:07.922Z,26.13
2022-12-17T07:03:15.703Z,30.83
2022-12-17T07:06:15.116Z,29.27
2022-12-17T07:09:19.757Z,25.85
2022-12-17T07:12:18.830Z,29.80
2022-12-17T07:15:29.758Z,26.00
2022-12-17T07:18:36.779Z,24.40
2022-12-17T07:21:35.422Z,31.58
2022-12-17T07:24:40.692Z,30.45
2022-12-17T07:27:39.290Z,25.88
2022-12-17T07:30:44.720Z,26.00
2022-12-17T07:33:45.307Z,25.95
2022-12-17T07:36:50.652Z,27.88
2022-12-17T07:39:49.506Z,28.60
2022-12-17T07:42:54.759Z,26.08
2022-12-17T07:46:00.775Z,26.38
2022-12-17T07:49:08.221Z,25.55
2022-12-17T07:52:07.731Z,31.60
2022-12-17T07:55:07.044Z,32.25
2022-12-17T07:58:11.708Z,27.30
2022-12-17T08:01:11.139Z,29.00
2022-12-17T08:04:17.746Z,30.35
2022-12-17T08:07:16.937Z,25.90
2022-12-17T08:10:21.728Z,29.50
2022-12-17T08:13:23.002Z,31.83
2022-12-17T08:16:27.754Z,34.75
2022-12-17T08:19:34.703Z,38.35
2022-12-17T08:22:34.325Z,40.55
2022-12-17T08:25:39.829Z,31.48
2022-12-17T08:28:50.570Z,34.38
2022-12-17T08:31:56.762Z,33.28
2022-12-17T08:34:57.554Z,32.67
2022-12-17T08:38:03.712Z,34.58
2022-12-17T08:41:09.777Z,36.10
2022-12-17T08:44:09.079Z,34.72
2022-12-17T08:47:13.678Z,31.67
2022-12-17T08:50:14.563Z,34.67
2022-12-17T08:53:19.685Z,37.22
2022-12-17T08:56:19.153Z,33.67
2022-12-17T08:59:24.710Z,34.58
2022-12-17T09:02:36.807Z,36.40
2022-12-17T09:05:44.708Z,32.88
2022-12-17T09:08:43.717Z,34.97
2022-12-17T09:11:43.923Z,37.45
2022-12-17T09:14:49.768Z,34.05
2022-12-17T09:17:48.996Z,37.00
2022-12-17T09:21:00.737Z,32.83
2022-12-17T09:24:00.335Z,33.90
2022-12-17T09:27:05.766Z,36.50
2022-12-17T09:30:11.723Z,31.83
2022-12-17T09:33:11.710Z,37.20
2022-12-17T09:36:18.783Z,33.42
2022-12-17T09:39:18.360Z,36.05
2022-12-17T09:42:32.714Z,39.25
2022-12-17T09:48:46.740Z,31.40
2022-12-17T09:51:50.421Z,34.17
2022-12-17T09:55:01.594Z,37.08
2022-12-17T09:58:08.703Z,39.25
2022-12-17T10:01:09.241Z,34.60
2022-12-17T10:04:18.735Z,31.40
2022-12-17T10:07:20.564Z,36.88
2022-12-17T10:10:26.732Z,41.53
2022-12-17T10:13:35.352Z,34.47
2022-12-17T10:20:06.776Z,32.72
2022-12-17T10:26:17.800Z,38.35
2022-12-17T10:29:25.447Z,40.72
2022-12-17T10:32:35.734Z,36.30
2022-12-17T10:35:42.541Z,35.22
2022-12-17T10:38:51.720Z,37.17
2022-12-17T10:42:03.952Z,36.65
2022-12-17T10:45:09.793Z,34.03
2022-12-17T10:48:15.725Z,38.08
2022-12-17T10:51:15.324Z,37.92
2022-12-17T10:54:24.269Z,36.33
2022-12-17T10:57:26.514Z,36.58
2022-12-17T11:00:31.815Z,37.28
2022-12-17T11:04:01.754Z,37.80
2022-12-17T11:07:11.895Z,33.92
2022-12-17T11:10:15.444Z,35.20
2022-12-17T11:13:24.733Z,41.88
2022-12-17T11:16:32.833Z,32.88
2022-12-17T11:20:01.660Z,34.55
2022-12-17T11:23:07.857Z,36.58
2022-12-17T11:26:14.480Z,34.65
2022-12-17T11:29:18.725Z,36.47
2022-12-17T11:32:42.911Z,42.15
2022-12-17T11:35:54.739Z,37.53
2022-12-17T11:38:57.521Z,44.78
2022-12-17T11:42:11.578Z,35.50
2022-12-17T11:45:32.808Z,42.47
2022-12-17T11:48:44.496Z,38.78
2022-12-17T11:51:51.769Z,33.92
2022-12-17T11:54:58.569Z,36.35
2022-12-17T11:58:13.756Z,39.95
2022-12-17T12:01:21.220Z,33.38
2022-12-17T12:04:37.766Z,36.67
2022-12-17T12:07:44.938Z,36.58
2022-12-17T12:10:56.761Z,41.08
2022-12-17T12:14:08.873Z,38.50
2022-12-17T12:17:18.795Z,35.90
2022-12-17T12:20:24.780Z,34.03
2022-12-17T12:23:33.557Z,38.88
2022-12-17T12:26:41.756Z,43.13
2022-12-17T12:29:56.503Z,40.50
2022-12-17T12:33:10.103Z,34.63
2022-12-17T12:36:09.457Z,35.15
2022-12-17T12:39:18.841Z,42.15
2022-12-17T12:42:35.734Z,36.28
2022-12-17T12:45:51.887Z,38.17
2022-12-17T12:49:08.757Z,39.67
2022-12-17T12:52:09.452Z,36.45
2022-12-17T12:55:24.763Z,34.00
2022-12-17T12:58:41.955Z,36.33
2022-12-17T13:01:49.888Z,36.08
2022-12-17T13:04:59.767Z,40.25
2022-12-17T13:07:41.766Z,96.78
2022-12-17T13:10:29.694Z,48.67
2022-12-17T13:13:26.765Z,41.22
2022-12-17T13:16:29.809Z,41.47
2022-12-17T13:19:31.803Z,39.63
2022-12-17T13:22:36.770Z,37.90
2022-12-17T13:25:25.558Z,37.53
2022-12-17T13:28:13.841Z,40.67
2022-12-17T13:30:55.976Z,38.13
2022-12-17T13:33:53.769Z,37.22
2022-12-17T13:36:41.981Z,36.28
2022-12-17T13:42:37.837Z,38.00
2022-12-17T13:45:29.889Z,37.17
2022-12-17T13:48:21.776Z,35.38
2022-12-17T13:51:13.834Z,35.45
2022-12-17T13:53:58.552Z,56.40
2022-12-17T13:56:48.829Z,42.63
2022-12-17T13:59:36.834Z,40.25
2022-12-17T14:02:32.090Z,38.28
2022-12-17T14:05:33.730Z,37.25
2022-12-17T14:08:21.392Z,39.95
2022-12-17T14:11:27.760Z,39.33
2022-12-17T14:14:09.992Z,42.72
2022-12-17T14:16:57.827Z,42.80
2022-12-17T14:19:40.916Z,38.88
2022-12-17T14:22:39.824Z,43.88
2022-12-17T14:25:32.823Z,50.22
2022-12-17T14:28:24.464Z,49.35
2022-12-17T14:31:28.194Z,48.90
2022-12-17T14:34:11.990Z,47.35
2022-12-17T14:37:00.805Z,44.65
2022-12-17T14:39:46.310Z,44.60
2022-12-17T14:42:38.829Z,43.92
2022-12-17T14:45:26.056Z,48.83
2022-12-17T14:48:17.823Z,43.38
2022-12-17T14:50:59.748Z,46.85
2022-12-17T14:53:48.868Z,44.65
2022-12-17T14:56:30.759Z,49.05
2022-12-17T14:59:35.857Z,40.83
2022-12-17T15:02:30.933Z,46.58
2022-12-17T15:05:33.767Z,45.75
2022-12-17T15:08:21.774Z,48.13
2022-12-17T15:11:03.974Z,47.97
2022-12-17T15:13:56.270Z,49.50
2022-12-17T15:16:40.420Z,44.15
2022-12-17T15:19:27.778Z,48.75
2022-12-17T15:22:18.871Z,46.53
2022-12-17T15:25:00.746Z,46.85
2022-12-17T15:27:49.820Z,48.75
2022-12-17T15:30:31.713Z,48.58
2022-12-17T15:33:22.781Z,50.75
2022-12-17T15:36:05.333Z,45.78
2022-12-17T15:38:53.805Z,51.33
2022-12-17T15:42:05.784Z,46.40
2022-12-17T15:44:54.773Z,41.15
2022-12-17T15:47:42.788Z,47.50
2022-12-17T15:50:26.464Z,41.75
2022-12-17T15:53:13.794Z,47.25
2022-12-17T15:56:00.812Z,47.65
2022-12-17T15:58:48.844Z,48.63
2022-12-17T16:01:30.822Z,46.90
2022-12-17T16:04:24.853Z,55.75
2022-12-17T16:07:08.168Z,52.20
2022-12-17T16:09:59.008Z,52.25
2022-12-17T16:12:50.812Z,48.08
2022-12-17T16:15:33.013Z,52.42
2022-12-17T16:18:22.813Z,45.05
2022-12-17T16:21:09.067Z,49.58
2022-12-17T16:23:58.868Z,50.28
2022-12-17T16:26:40.997Z,49.30
2022-12-17T16:29:29.883Z,56.05
2022-12-17T16:32:11.996Z,54.17
2022-12-17T16:34:59.799Z,53.40
2022-12-17T16:37:42.061Z,56.38
2022-12-17T16:40:31.891Z,56.35
2022-12-17T16:43:26.926Z,57.03
2022-12-17T16:46:28.045Z,52.70
2022-12-17T16:49:20.823Z,48.58
2022-12-17T16:52:03.433Z,49.28
2022-12-17T16:54:50.810Z,50.45
2022-12-17T16:57:34.164Z,46.58
2022-12-17T17:00:23.815Z,44.80
2022-12-17T17:03:06.506Z,44.03
2022-12-17T17:05:54.846Z,50.80
2022-12-17T17:08:50.807Z,54.30
2022-12-17T17:11:33.215Z,56.05
2022-12-17T17:14:23.841Z,54.70
2022-12-17T17:17:05.754Z,55.75
2022-12-17T17:19:54.893Z,53.53
2022-12-17T17:22:36.687Z,52.25
2022-12-17T17:25:34.718Z,60.08
2022-12-17T17:28:25.811Z,51.63
2022-12-17T17:31:16.879Z,55.60
2022-12-17T17:33:58.810Z,49.67
2022-12-17T17:36:47.943Z,51.08
2022-12-17T17:39:33.116Z,57.00
2022-12-17T17:42:21.860Z,59.88
2022-12-17T17:45:10.889Z,56.92
2022-12-17T17:47:55.081Z,69.70
2022-12-17T17:50:42.831Z,57.47
2022-12-17T17:53:25.139Z,58.75
2022-12-17T17:56:20.845Z,56.60
2022-12-17T17:59:05.975Z,56.67
2022-12-17T18:01:56.946Z,52.53
2022-12-17T18:04:40.565Z,52.47
2022-12-17T18:07:28.380Z,55.70
2022-12-17T18:10:10.061Z,49.47
2022-12-17T18:13:15.838Z,44.40
2022-12-17T18:16:06.879Z,47.58
2022-12-17T18:18:56.423Z,41.80
2022-12-17T18:21:46.894Z,43.40
2022-12-17T18:24:28.775Z,47.65
2022-12-17T18:27:17.823Z,45.67
2022-12-17T18:29:59.738Z,38.25
2022-12-17T18:32:48.834Z,41.25
2022-12-17T18:35:30.821Z,42.88
2022-12-17T18:38:20.845Z,40.55
2022-12-17T18:41:37.840Z,44.65
2022-12-17T18:44:20.799Z,43.63
2022-12-17T18:47:09.858Z,40.60
2022-12-17T18:49:52.030Z,35.88
2022-12-17T18:52:39.810Z,38.78
2022-12-17T18:55:23.304Z,43.88
2022-12-17T18:58:17.140Z,37.67
2022-12-17T19:01:00.330Z,39.80
2022-12-17T19:03:48.890Z,41.50
2022-12-17T19:06:32.822Z,40.47
2022-12-17T19:09:22.880Z,44.33
2022-12-17T19:12:08.604Z,42.70
2022-12-17T19:14:55.860Z,42.22
2022-12-17T19:17:43.837Z,41.45
2022-12-17T19:20:29.075Z,44.28
2022-12-17T19:23:17.838Z,41.38
2022-12-17T19:26:00.074Z,45.08
2022-12-17T19:28:50.887Z,39.75
2022-12-17T19:31:35.186Z,40.47
2022-12-17T19:34:24.944Z,38.70
2022-12-17T19:37:06.200Z,38.53
2022-12-17T19:39:54.885Z,38.28
2022-12-17T19:42:37.636Z,38.70
2022-12-17T19:45:27.945Z,39.55
2022-12-17T19:48:16.004Z,39.38
2022-12-17T19:50:58.158Z,43.75
2022-12-17T19:53:47.849Z,41.00
2022-12-17T19:56:31.204Z,44.22
2022-12-17T19:59:22.269Z,37.53
2022-12-17T20:02:05.348Z,41.03
2022-12-17T20:04:52.935Z,48.13
2022-12-17T20:07:34.848Z,50.50
2022-12-17T20:10:23.906Z,61.33
2022-12-17T20:13:06.232Z,65.05
2022-12-17T20:15:53.936Z,63.28
2022-12-17T20:18:43.859Z,74.60
2022-12-17T20:21:26.102Z,80.50
2022-12-17T20:24:14.835Z,97.60
2022-12-17T20:26:58.194Z,86.70
2022-12-17T20:29:46.866Z,88.15
2022-12-17T20:32:28.186Z,73.20
2022-12-17T20:35:17.860Z,70.85
2022-12-17T20:37:59.066Z,75.13
2022-12-17T20:40:47.880Z,73.72
2022-12-17T20:43:36.104Z,78.95
2022-12-17T20:46:18.929Z,74.30
2022-12-17T20:49:01.645Z,70.93
2022-12-17T20:51:50.980Z,66.43
2022-12-17T20:54:46.160Z,71.22
2022-12-17T20:57:27.680Z,70.00
2022-12-17T21:00:14.874Z,56.55
2022-12-17T21:02:57.438Z,60.03
2022-12-17T21:05:45.256Z,57.90
2022-12-17T21:08:28.178Z,55.45
2022-12-17T21:11:16.896Z,70.80
2022-12-17T21:13:59.352Z,66.88
2022-12-17T21:16:48.936Z,68.97
2022-12-17T21:19:30.806Z,52.60
2022-12-17T21:22:18.922Z,72.70
2022-12-17T21:25:02.116Z,68.60
2022-12-17T21:27:50.894Z,73.70
2022-12-17T21:30:42.986Z,69.10
2022-12-17T21:33:24.158Z,70.53
2022-12-17T21:36:13.881Z,68.85
2022-12-17T21:38:56.054Z,69.18
2022-12-17T21:41:47.943Z,67.40
2022-12-17T21:44:29.162Z,67.95
2022-12-17T21:47:17.959Z,65.82
2022-12-17T21:50:00.169Z,67.30
2022-12-17T21:52:48.871Z,65.13
2022-12-17T21:55:30.140Z,66.68
2022-12-17T21:58:19.897Z,62.30
2022-12-17T22:01:08.949Z,64.53
2022-12-17T22:04:07.192Z,66.10
2022-12-17T22:06:56.981Z,74.35
2022-12-17T22:10:10.038Z,66.55
2022-12-17T22:13:07.915Z,68.53
2022-12-17T22:15:51.238Z,63.45
2022-12-17T22:18:40.155Z,70.75
2022-12-17T22:21:22.242Z,61.97
2022-12-17T22:24:09.958Z,45.80
2022-12-17T22:26:52.237Z,50.95
2022-12-17T22:29:57.895Z,43.40
2022-12-17T22:33:16.647Z,52.17
2022-12-17T22:38:36.136Z,49.60
2022-12-17T22:44:38.096Z,47.60
2022-12-17T22:45:47.908Z,43.85
2022-12-17T22:48:32.129Z,34.90
2022-12-17T22:51:36.961Z,31.92
2022-12-17T22:54:21.885Z,29.13
2022-12-17T22:57:34.739Z,28.60
2022-12-17T23:00:29.918Z,48.17
2022-12-17T23:03:12.505Z,50.17
2022-12-17T23:06:01.903Z,54.22
2022-12-17T23:08:44.652Z,56.10
2022-12-17T23:11:37.930Z,53.83
2022-12-17T23:14:19.910Z,51.05
2022-12-17T23:17:07.954Z,48.42
2022-12-17T23:19:49.879Z,49.03
2022-12-17T23:22:39.918Z,49.58
2022-12-17T23:25:23.242Z,53.88
2022-12-17T23:28:10.993Z,48.20
2022-12-17T23:31:06.017Z,57.72
2022-12-17T23:33:48.736Z,58.95
2022-12-17T23:36:38.907Z,47.20
2022-12-17T23:39:22.366Z,53.38
2022-12-17T23:42:11.015Z,51.97
2022-12-17T23:44:52.905Z,47.60
2022-12-17T23:47:41.943Z,44.97
2022-12-17T23:50:24.846Z,43.85
2022-12-17T23:53:13.966Z,44.53
2022-12-17T23:56:06.052Z,41.50
2022-12-17T23:58:55.901Z,37.30
